sensor_id;sensor_type;location;lat;lon;timestamp;P1;durP1;ratioP1;P2;durP2;ratioP2
52112;SDS011;38109;49.488;31.988;2022-09-29T02:15:09;2.28;;;1.52;;
52112;SDS011;38109;49.488;31.988;2022-09-29T02:17:40;1.85;;;1.45;;
52112;SDS011;38109;49.488;31.988;2022-09-29T02:20:10;1.58;;;1.25;;
52112;SDS011;38109;49.488;31.988;2022-09-29T02:22:36;1.58;;;1.20;;
52112;SDS011;38109;49.488;31.988;2022-09-29T02:25:03;2.08;;;1.35;;
52112;SDS011;38109;49.488;31.988;2022-09-29T02:27:32;2.35;;;1.33;;
52112;SDS011;38109;49.488;31.988;2022-09-29T02:29:59;1.88;;;1.38;;
52112;SDS011;38109;49.488;31.988;2022-09-29T02:32:25;1.45;;;1.20;;
52112;SDS011;38109;49.488;31.988;2022-09-29T02:34:51;1.30;;;1.10;;
52112;SDS011;38109;49.488;31.988;2022-09-29T02:37:25;3.13;;;2.35;;
52112;SDS011;38109;49.488;31.988;2022-09-29T02:43:00;3.83;;;2.80;;
52112;SDS011;38109;49.488;31.988;2022-09-29T02:45:43;3.97;;;2.55;;
52112;SDS011;38109;49.488;31.988;2022-09-29T02:48:38;1.75;;;1.48;;
52112;SDS011;38109;49.488;31.988;2022-09-29T02:51:27;3.08;;;2.00;;
52112;SDS011;38109;49.488;31.988;2022-09-29T02:57:04;1.55;;;1.38;;
52112;SDS011;38109;49.488;31.988;2022-09-29T03:02:22;2.40;;;1.48;;
52112;SDS011;38109;49.488;31.988;2022-09-29T03:04:52;1.83;;;1.38;;
52112;SDS011;38109;49.488;31.988;2022-09-29T03:07:19;1.92;;;1.38;;
52112;SDS011;38109;49.488;31.988;2022-09-29T03:09:45;1.90;;;1.40;;
52112;SDS011;38109;49.488;31.988;2022-09-29T03:12:11;1.83;;;1.40;;
52112;SDS011;38109;49.488;31.988;2022-09-29T03:14:37;2.38;;;1.58;;
52112;SDS011;38109;49.488;31.988;2022-09-29T03:17:03;2.45;;;1.58;;
52112;SDS011;38109;49.488;31.988;2022-09-29T03:19:29;2.15;;;1.50;;
52112;SDS011;38109;49.488;31.988;2022-09-29T03:21:55;1.90;;;1.50;;
52112;SDS011;38109;49.488;31.988;2022-09-29T03:24:21;2.13;;;1.38;;
52112;SDS011;38109;49.488;31.988;2022-09-29T03:26:47;1.52;;;1.15;;
52112;SDS011;38109;49.488;31.988;2022-09-29T03:29:12;2.38;;;1.48;;
52112;SDS011;38109;49.488;31.988;2022-09-29T03:31:38;2.20;;;1.60;;
52112;SDS011;38109;49.488;31.988;2022-09-29T03:34:05;1.85;;;1.30;;
52112;SDS011;38109;49.488;31.988;2022-09-29T03:36:31;2.00;;;1.30;;
52112;SDS011;38109;49.488;31.988;2022-09-29T03:38:58;2.40;;;1.27;;
52112;SDS011;38109;49.488;31.988;2022-09-29T03:41:24;1.65;;;1.50;;
52112;SDS011;38109;49.488;31.988;2022-09-29T03:43:50;2.33;;;1.50;;
52112;SDS011;38109;49.488;31.988;2022-09-29T03:46:16;1.30;;;1.00;;
52112;SDS011;38109;49.488;31.988;2022-09-29T03:48:42;1.10;;;1.00;;
52112;SDS011;38109;49.488;31.988;2022-09-29T03:51:08;1.33;;;1.20;;
52112;SDS011;38109;49.488;31.988;2022-09-29T03:53:35;1.98;;;1.30;;
52112;SDS011;38109;49.488;31.988;2022-09-29T03:56:01;1.00;;;0.90;;
52112;SDS011;38109;49.488;31.988;2022-09-29T03:58:28;1.60;;;0.90;;
52112;SDS011;38109;49.488;31.988;2022-09-29T04:00:54;1.80;;;1.25;;
52112;SDS011;38109;49.488;31.988;2022-09-29T04:03:20;1.95;;;1.20;;
52112;SDS011;38109;49.488;31.988;2022-09-29T04:05:46;1.95;;;1.13;;
52112;SDS011;38109;49.488;31.988;2022-09-29T04:08:13;1.40;;;1.30;;
52112;SDS011;38109;49.488;31.988;2022-09-29T04:10:40;2.17;;;1.27;;
52112;SDS011;38109;49.488;31.988;2022-09-29T04:13:06;1.55;;;1.30;;
52112;SDS011;38109;49.488;31.988;2022-09-29T04:15:32;1.70;;;1.40;;
52112;SDS011;38109;49.488;31.988;2022-09-29T04:17:59;2.03;;;1.27;;
52112;SDS011;38109;49.488;31.988;2022-09-29T04:20:25;1.60;;;1.30;;
52112;SDS011;38109;49.488;31.988;2022-09-29T04:22:52;1.20;;;1.10;;
52112;SDS011;38109;49.488;31.988;2022-09-29T04:25:18;1.80;;;1.33;;
52112;SDS011;38109;49.488;31.988;2022-09-29T04:27:44;1.35;;;1.10;;
52112;SDS011;38109;49.488;31.988;2022-09-29T04:30:09;1.50;;;1.25;;
52112;SDS011;38109;49.488;31.988;2022-09-29T04:32:36;2.08;;;1.40;;
52112;SDS011;38109;49.488;31.988;2022-09-29T04:35:02;2.90;;;1.75;;
52112;SDS011;38109;49.488;31.988;2022-09-29T04:37:28;1.98;;;1.25;;
52112;SDS011;38109;49.488;31.988;2022-09-29T04:39:55;1.83;;;1.60;;
52112;SDS011;38109;49.488;31.988;2022-09-29T04:42:21;1.70;;;1.52;;
52112;SDS011;38109;49.488;31.988;2022-09-29T04:44:46;1.73;;;1.20;;
52112;SDS011;38109;49.488;31.988;2022-09-29T04:47:17;1.65;;;1.50;;
52112;SDS011;38109;49.488;31.988;2022-09-29T04:49:42;1.95;;;1.27;;
52112;SDS011;38109;49.488;31.988;2022-09-29T04:52:10;1.70;;;1.60;;
52112;SDS011;38109;49.488;31.988;2022-09-29T04:54:36;2.13;;;1.45;;
52112;SDS011;38109;49.488;31.988;2022-09-29T04:57:02;1.88;;;1.50;;
52112;SDS011;38109;49.488;31.988;2022-09-29T04:59:28;1.77;;;1.40;;
52112;SDS011;38109;49.488;31.988;2022-09-29T05:01:54;1.95;;;1.42;;
52112;SDS011;38109;49.488;31.988;2022-09-29T05:04:20;2.00;;;1.60;;
52112;SDS011;38109;49.488;31.988;2022-09-29T05:06:46;2.10;;;1.33;;
52112;SDS011;38109;49.488;31.988;2022-09-29T05:09:11;1.95;;;1.33;;
52112;SDS011;38109;49.488;31.988;2022-09-29T05:11:37;1.60;;;1.30;;
52112;SDS011;38109;49.488;31.988;2022-09-29T05:14:03;1.58;;;1.15;;
52112;SDS011;38109;49.488;31.988;2022-09-29T05:16:29;2.83;;;1.20;;
52112;SDS011;38109;49.488;31.988;2022-09-29T05:18:55;1.80;;;1.13;;
52112;SDS011;38109;49.488;31.988;2022-09-29T05:21:21;1.20;;;1.10;;
52112;SDS011;38109;49.488;31.988;2022-09-29T05:23:46;1.48;;;1.00;;
52112;SDS011;38109;49.488;31.988;2022-09-29T05:26:12;1.58;;;1.40;;
52112;SDS011;38109;49.488;31.988;2022-09-29T05:28:42;2.60;;;1.63;;
52112;SDS011;38109;49.488;31.988;2022-09-29T05:31:09;1.17;;;1.08;;
52112;SDS011;38109;49.488;31.988;2022-09-29T05:33:35;1.50;;;1.20;;
52112;SDS011;38109;49.488;31.988;2022-09-29T05:36:05;1.60;;;1.33;;
52112;SDS011;38109;49.488;31.988;2022-09-29T05:38:33;1.63;;;1.20;;
52112;SDS011;38109;49.488;31.988;2022-09-29T05:41:05;1.40;;;1.27;;
52112;SDS011;38109;49.488;31.988;2022-09-29T05:43:33;1.05;;;0.93;;
52112;SDS011;38109;49.488;31.988;2022-09-29T05:46:02;1.17;;;1.05;;
52112;SDS011;38109;49.488;31.988;2022-09-29T05:48:28;1.95;;;1.30;;
52112;SDS011;38109;49.488;31.988;2022-09-29T05:50:57;1.20;;;1.05;;
52112;SDS011;38109;49.488;31.988;2022-09-29T05:53:24;1.70;;;1.30;;
52112;SDS011;38109;49.488;31.988;2022-09-29T05:55:50;1.80;;;1.30;;
52112;SDS011;38109;49.488;31.988;2022-09-29T05:58:16;1.25;;;0.90;;
52112;SDS011;38109;49.488;31.988;2022-09-29T06:00:42;1.60;;;1.02;;
52112;SDS011;38109;49.488;31.988;2022-09-29T06:03:08;1.88;;;1.40;;
52112;SDS011;38109;49.488;31.988;2022-09-29T06:05:36;1.60;;;1.02;;
52112;SDS011;38109;49.488;31.988;2022-09-29T06:08:03;1.50;;;1.23;;
52112;SDS011;38109;49.488;31.988;2022-09-29T06:10:29;2.10;;;1.25;;
52112;SDS011;38109;49.488;31.988;2022-09-29T06:12:55;1.70;;;1.30;;
52112;SDS011;38109;49.488;31.988;2022-09-29T06:15:21;2.65;;;1.30;;
52112;SDS011;38109;49.488;31.988;2022-09-29T06:17:53;1.48;;;1.10;;
52112;SDS011;38109;49.488;31.988;2022-09-29T06:20:22;1.63;;;1.30;;
52112;SDS011;38109;49.488;31.988;2022-09-29T06:22:48;2.53;;;1.50;;
52112;SDS011;38109;49.488;31.988;2022-09-29T06:25:15;1.77;;;1.42;;
52112;SDS011;38109;49.488;31.988;2022-09-29T06:27:41;1.73;;;1.40;;
52112;SDS011;38109;49.488;31.988;2022-09-29T06:30:07;1.20;;;1.10;;
52112;SDS011;38109;49.488;31.988;2022-09-29T06:32:33;1.88;;;1.38;;
52112;SDS011;38109;49.488;31.988;2022-09-29T06:34:59;2.13;;;1.55;;
52112;SDS011;38109;49.488;31.988;2022-09-29T06:37:44;1.33;;;1.10;;
52112;SDS011;38109;49.488;31.988;2022-09-29T06:40:11;1.48;;;1.30;;
52112;SDS011;38109;49.488;31.988;2022-09-29T06:42:37;1.92;;;1.30;;
52112;SDS011;38109;49.488;31.988;2022-09-29T06:45:03;1.13;;;1.00;;
52112;SDS011;38109;49.488;31.988;2022-09-29T06:47:29;1.48;;;1.23;;
52112;SDS011;38109;49.488;31.988;2022-09-29T06:49:55;1.85;;;1.35;;
52112;SDS011;38109;49.488;31.988;2022-09-29T06:52:22;1.85;;;1.15;;
52112;SDS011;38109;49.488;31.988;2022-09-29T06:54:47;1.50;;;1.40;;
52112;SDS011;38109;49.488;31.988;2022-09-29T06:57:13;2.03;;;1.50;;
52112;SDS011;38109;49.488;31.988;2022-09-29T06:59:39;2.30;;;1.65;;
52112;SDS011;38109;49.488;31.988;2022-09-29T07:02:05;1.88;;;1.20;;
52112;SDS011;38109;49.488;31.988;2022-09-29T07:04:30;1.63;;;1.30;;
52112;SDS011;38109;49.488;31.988;2022-09-29T07:06:56;3.33;;;2.03;;
52112;SDS011;38109;49.488;31.988;2022-09-29T07:09:22;1.42;;;1.30;;
52112;SDS011;38109;49.488;31.988;2022-09-29T07:11:49;2.60;;;1.70;;
52112;SDS011;38109;49.488;31.988;2022-09-29T07:14:16;1.75;;;1.30;;
52112;SDS011;38109;49.488;31.988;2022-09-29T07:16:49;2.25;;;1.33;;
52112;SDS011;38109;49.488;31.988;2022-09-29T07:19:16;1.95;;;1.48;;
52112;SDS011;38109;49.488;31.988;2022-09-29T07:21:42;1.92;;;1.33;;
52112;SDS011;38109;49.488;31.988;2022-09-29T07:24:08;2.47;;;1.60;;
52112;SDS011;38109;49.488;31.988;2022-09-29T07:26:34;2.03;;;1.60;;
52112;SDS011;38109;49.488;31.988;2022-09-29T07:29:00;2.47;;;1.33;;
52112;SDS011;38109;49.488;31.988;2022-09-29T07:31:26;1.95;;;1.30;;
52112;SDS011;38109;49.488;31.988;2022-09-29T07:33:52;1.55;;;1.20;;
52112;SDS011;38109;49.488;31.988;2022-09-29T07:36:20;2.58;;;1.17;;
52112;SDS011;38109;49.488;31.988;2022-09-29T07:38:46;2.17;;;1.60;;
52112;SDS011;38109;49.488;31.988;2022-09-29T07:41:13;2.00;;;1.60;;
52112;SDS011;38109;49.488;31.988;2022-09-29T07:43:40;2.10;;;1.50;;
52112;SDS011;38109;49.488;31.988;2022-09-29T07:46:06;2.47;;;1.55;;
52112;SDS011;38109;49.488;31.988;2022-09-29T07:48:33;1.88;;;1.45;;
52112;SDS011;38109;49.488;31.988;2022-09-29T07:51:03;6.15;;;1.45;;
52112;SDS011;38109;49.488;31.988;2022-09-29T07:53:32;2.15;;;1.38;;
52112;SDS011;38109;49.488;31.988;2022-09-29T07:56:31;2.13;;;1.40;;
52112;SDS011;38109;49.488;31.988;2022-09-29T07:58:50;1.63;;;1.43;;
52112;SDS011;38109;49.488;31.988;2022-09-29T08:01:16;2.35;;;1.65;;
52112;SDS011;38109;49.488;31.988;2022-09-29T08:03:47;1.73;;;0.98;;
52112;SDS011;38109;49.488;31.988;2022-09-29T08:06:18;1.98;;;1.25;;
52112;SDS011;38109;49.488;31.988;2022-09-29T08:08:45;1.92;;;1.40;;
52112;SDS011;38109;49.488;31.988;2022-09-29T08:11:12;3.28;;;2.10;;
52112;SDS011;38109;49.488;31.988;2022-09-29T08:13:40;3.38;;;2.10;;
52112;SDS011;38109;49.488;31.988;2022-09-29T08:16:07;4.75;;;2.58;;
52112;SDS011;38109;49.488;31.988;2022-09-29T08:18:35;4.47;;;2.70;;
52112;SDS011;38109;49.488;31.988;2022-09-29T08:21:02;3.35;;;2.20;;
52112;SDS011;38109;49.488;31.988;2022-09-29T08:23:28;4.10;;;2.53;;
52112;SDS011;38109;49.488;31.988;2022-09-29T08:26:02;3.88;;;2.42;;
52112;SDS011;38109;49.488;31.988;2022-09-29T08:28:30;3.17;;;2.28;;
52112;SDS011;38109;49.488;31.988;2022-09-29T08:31:16;3.35;;;2.03;;
52112;SDS011;38109;49.488;31.988;2022-09-29T08:33:45;2.92;;;1.90;;
52112;SDS011;38109;49.488;31.988;2022-09-29T08:36:13;4.68;;;2.55;;
52112;SDS011;38109;49.488;31.988;2022-09-29T08:38:47;3.90;;;2.30;;
52112;SDS011;38109;49.488;31.988;2022-09-29T08:43:53;3.95;;;2.47;;
52112;SDS011;38109;49.488;31.988;2022-09-29T08:46:38;1.55;;;1.20;;
52112;SDS011;38109;49.488;31.988;2022-09-29T08:49:12;3.33;;;2.15;;
52112;SDS011;38109;49.488;31.988;2022-09-29T08:52:03;2.10;;;1.63;;
52112;SDS011;38109;49.488;31.988;2022-09-29T08:54:35;2.65;;;1.88;;
52112;SDS011;38109;49.488;31.988;2022-09-29T08:57:04;3.00;;;1.80;;
52112;SDS011;38109;49.488;31.988;2022-09-29T08:59:30;4.28;;;2.65;;
52112;SDS011;38109;49.488;31.988;2022-09-29T09:04:57;2.85;;;1.83;;
52112;SDS011;38109;49.488;31.988;2022-09-29T09:15:38;1.77;;;1.20;;
52112;SDS011;38109;49.488;31.988;2022-09-29T09:18:35;3.10;;;1.90;;
52112;SDS011;38109;49.488;31.988;2022-09-29T09:21:09;1.92;;;1.65;;
52112;SDS011;38109;49.488;31.988;2022-09-29T09:24:14;1.98;;;1.50;;
52112;SDS011;38109;49.488;31.988;2022-09-29T09:26:41;2.13;;;1.63;;
52112;SDS011;38109;49.488;31.988;2022-09-29T09:29:31;2.28;;;1.83;;
52112;SDS011;38109;49.488;31.988;2022-09-29T09:32:29;2.17;;;1.65;;
52112;SDS011;38109;49.488;31.988;2022-09-29T09:34:56;2.95;;;1.75;;
52112;SDS011;38109;49.488;31.988;2022-09-29T09:37:33;2.35;;;1.33;;
52112;SDS011;38109;49.488;31.988;2022-09-29T09:42:45;2.55;;;1.55;;
52112;SDS011;38109;49.488;31.988;2022-09-29T09:45:26;3.03;;;2.03;;
52112;SDS011;38109;49.488;31.988;2022-09-29T09:48:09;2.03;;;1.58;;
52112;SDS011;38109;49.488;31.988;2022-09-29T09:50:40;2.90;;;1.90;;
52112;SDS011;38109;49.488;31.988;2022-09-29T09:53:19;2.20;;;1.60;;
52112;SDS011;38109;49.488;31.988;2022-09-29T09:56:03;2.38;;;1.70;;
52112;SDS011;38109;49.488;31.988;2022-09-29T10:01:17;3.17;;;2.10;;
52112;SDS011;38109;49.488;31.988;2022-09-29T10:03:44;1.90;;;1.60;;
52112;SDS011;38109;49.488;31.988;2022-09-29T10:06:09;3.47;;;2.05;;
52112;SDS011;38109;49.488;31.988;2022-09-29T10:08:37;3.58;;;2.20;;
52112;SDS011;38109;49.488;31.988;2022-09-29T10:11:17;3.20;;;2.25;;
52112;SDS011;38109;49.488;31.988;2022-09-29T10:14:11;3.63;;;2.22;;
52112;SDS011;38109;49.488;31.988;2022-09-29T10:16:37;3.00;;;2.05;;
52112;SDS011;38109;49.488;31.988;2022-09-29T10:19:09;3.25;;;2.28;;
52112;SDS011;38109;49.488;31.988;2022-09-29T10:24:04;3.85;;;2.20;;
52112;SDS011;38109;49.488;31.988;2022-09-29T10:26:43;4.65;;;2.53;;
52112;SDS011;38109;49.488;31.988;2022-09-29T10:29:21;3.65;;;2.28;;
52112;SDS011;38109;49.488;31.988;2022-09-29T10:34:33;4.60;;;3.10;;
52112;SDS011;38109;49.488;31.988;2022-09-29T10:37:03;4.53;;;2.63;;
52112;SDS011;38109;49.488;31.988;2022-09-29T10:39:32;5.00;;;3.33;;
52112;SDS011;38109;49.488;31.988;2022-09-29T10:42:20;5.15;;;2.72;;
52112;SDS011;38109;49.488;31.988;2022-09-29T10:45:10;5.25;;;3.15;;
52112;SDS011;38109;49.488;31.988;2022-09-29T10:50:22;5.15;;;3.28;;
52112;SDS011;38109;49.488;31.988;2022-09-29T10:52:56;4.03;;;2.50;;
52112;SDS011;38109;49.488;31.988;2022-09-29T10:55:24;3.38;;;2.30;;
52112;SDS011;38109;49.488;31.988;2022-09-29T10:57:55;2.90;;;2.00;;
52112;SDS011;38109;49.488;31.988;2022-09-29T11:00:34;3.03;;;2.20;;
52112;SDS011;38109;49.488;31.988;2022-09-29T11:03:13;4.53;;;2.55;;
52112;SDS011;38109;49.488;31.988;2022-09-29T11:05:54;2.97;;;2.22;;
52112;SDS011;38109;49.488;31.988;2022-09-29T11:08:23;3.08;;;2.10;;
52112;SDS011;38109;49.488;31.988;2022-09-29T11:11:16;3.10;;;2.28;;
52112;SDS011;38109;49.488;31.988;2022-09-29T11:13:49;3.28;;;2.10;;
52112;SDS011;38109;49.488;31.988;2022-09-29T11:16:25;2.85;;;2.03;;
52112;SDS011;38109;49.488;31.988;2022-09-29T11:18:54;4.20;;;2.33;;
52112;SDS011;38109;49.488;31.988;2022-09-29T11:29:57;3.72;;;2.25;;
52112;SDS011;38109;49.488;31.988;2022-09-29T11:41:17;4.18;;;2.55;;
52112;SDS011;38109;49.488;31.988;2022-09-29T11:43:54;3.22;;;1.77;;
52112;SDS011;38109;49.488;31.988;2022-09-29T12:00:13;4.03;;;2.83;;
52112;SDS011;38109;49.488;31.988;2022-09-29T12:05:48;3.70;;;2.40;;
52112;SDS011;38109;49.488;31.988;2022-09-29T12:08:33;4.25;;;2.67;;
52112;SDS011;38109;49.488;31.988;2022-09-29T12:17:17;5.60;;;3.42;;
52112;SDS011;38109;49.488;31.988;2022-09-29T12:19:46;4.45;;;2.85;;
52112;SDS011;38109;49.488;31.988;2022-09-29T12:22:26;5.70;;;3.45;;
52112;SDS011;38109;49.488;31.988;2022-09-29T12:24:53;6.22;;;3.13;;
52112;SDS011;38109;49.488;31.988;2022-09-29T12:27:25;4.75;;;2.70;;
52112;SDS011;38109;49.488;31.988;2022-09-29T12:30:42;4.22;;;2.78;;
52112;SDS011;38109;49.488;31.988;2022-09-29T12:40:45;6.22;;;3.92;;
52112;SDS011;38109;49.488;31.988;2022-09-29T12:43:32;6.20;;;3.70;;
52112;SDS011;38109;49.488;31.988;2022-09-29T12:46:31;6.57;;;4.47;;
52112;SDS011;38109;49.488;31.988;2022-09-29T12:49:02;6.63;;;4.40;;
52112;SDS011;38109;49.488;31.988;2022-09-29T12:51:40;8.40;;;5.18;;
52112;SDS011;38109;49.488;31.988;2022-09-29T12:54:28;7.95;;;4.28;;
52112;SDS011;38109;49.488;31.988;2022-09-29T12:57:08;6.97;;;4.45;;
52112;SDS011;38109;49.488;31.988;2022-09-29T13:00:12;6.13;;;3.63;;
52112;SDS011;38109;49.488;31.988;2022-09-29T13:13:49;7.53;;;4.05;;
52112;SDS011;38109;49.488;31.988;2022-09-29T13:19:30;4.40;;;3.25;;
52112;SDS011;38109;49.488;31.988;2022-09-29T13:29:59;8.48;;;4.43;;
52112;SDS011;38109;49.488;31.988;2022-09-29T13:32:41;5.75;;;3.63;;
52112;SDS011;38109;49.488;31.988;2022-09-29T13:35:19;7.22;;;4.10;;
52112;SDS011;38109;49.488;31.988;2022-09-29T13:38:01;7.05;;;4.40;;
52112;SDS011;38109;49.488;31.988;2022-09-29T13:40:29;6.22;;;3.65;;
52112;SDS011;38109;49.488;31.988;2022-09-29T13:43:00;5.88;;;3.53;;
52112;SDS011;38109;49.488;31.988;2022-09-29T13:48:02;6.47;;;2.53;;
52112;SDS011;38109;49.488;31.988;2022-09-29T13:50:55;6.72;;;3.88;;
52112;SDS011;38109;49.488;31.988;2022-09-29T13:58:52;6.25;;;3.92;;
52112;SDS011;38109;49.488;31.988;2022-09-29T14:10:44;7.75;;;3.78;;
52112;SDS011;38109;49.488;31.988;2022-09-29T14:13:04;4.82;;;3.00;;
52112;SDS011;38109;49.488;31.988;2022-09-29T14:15:34;3.13;;;2.15;;
52112;SDS011;38109;49.488;31.988;2022-09-29T14:18:06;5.00;;;3.40;;
52112;SDS011;38109;49.488;31.988;2022-09-29T14:20:58;6.03;;;3.55;;
52112;SDS011;38109;49.488;31.988;2022-09-29T14:23:45;4.60;;;2.72;;
52112;SDS011;38109;49.488;31.988;2022-09-29T14:29:29;3.85;;;2.38;;
52112;SDS011;38109;49.488;31.988;2022-09-29T14:31:58;4.40;;;2.72;;
52112;SDS011;38109;49.488;31.988;2022-09-29T14:34:26;5.55;;;2.92;;
52112;SDS011;38109;49.488;31.988;2022-09-29T14:36:57;4.22;;;2.55;;
52112;SDS011;38109;49.488;31.988;2022-09-29T14:39:24;3.97;;;2.08;;
52112;SDS011;38109;49.488;31.988;2022-09-29T14:41:51;5.10;;;2.55;;
52112;SDS011;38109;49.488;31.988;2022-09-29T14:44:18;5.03;;;2.20;;
52112;SDS011;38109;49.488;31.988;2022-09-29T15:03:50;4.38;;;2.30;;
52112;SDS011;38109;49.488;31.988;2022-09-29T15:06:18;2.97;;;1.73;;
52112;SDS011;38109;49.488;31.988;2022-09-29T15:08:52;4.22;;;2.65;;
52112;SDS011;38109;49.488;31.988;2022-09-29T15:13:53;4.50;;;2.67;;
52112;SDS011;38109;49.488;31.988;2022-09-29T15:16:41;5.18;;;3.17;;
52112;SDS011;38109;49.488;31.988;2022-09-29T15:27:32;4.65;;;2.67;;
52112;SDS011;38109;49.488;31.988;2022-09-29T15:29:59;5.72;;;3.22;;
52112;SDS011;38109;49.488;31.988;2022-09-29T15:32:26;5.13;;;2.95;;
52112;SDS011;38109;49.488;31.988;2022-09-29T15:49:19;4.28;;;2.67;;
52112;SDS011;38109;49.488;31.988;2022-09-29T15:55:17;3.80;;;2.30;;
52112;SDS011;38109;49.488;31.988;2022-09-29T16:03:43;3.85;;;2.25;;
52112;SDS011;38109;49.488;31.988;2022-09-29T16:06:33;3.58;;;2.17;;
52112;SDS011;38109;49.488;31.988;2022-09-29T16:09:02;4.38;;;2.65;;
52112;SDS011;38109;49.488;31.988;2022-09-29T16:11:36;3.03;;;2.10;;
52112;SDS011;38109;49.488;31.988;2022-09-29T16:16:45;3.25;;;2.20;;
52112;SDS011;38109;49.488;31.988;2022-09-29T16:19:20;2.17;;;1.83;;
52112;SDS011;38109;49.488;31.988;2022-09-29T16:21:54;2.05;;;1.63;;
52112;SDS011;38109;49.488;31.988;2022-09-29T16:24:32;2.95;;;1.90;;
52112;SDS011;38109;49.488;31.988;2022-09-29T16:27:00;4.35;;;2.13;;
52112;SDS011;38109;49.488;31.988;2022-09-29T16:29:33;2.88;;;1.77;;
52112;SDS011;38109;49.488;31.988;2022-09-29T16:38:50;2.67;;;1.83;;
52112;SDS011;38109;49.488;31.988;2022-09-29T16:43:28;3.25;;;2.10;;
52112;SDS011;38109;49.488;31.988;2022-09-29T16:45:56;4.85;;;2.30;;
52112;SDS011;38109;49.488;31.988;2022-09-29T16:48:24;3.00;;;1.75;;
52112;SDS011;38109;49.488;31.988;2022-09-29T16:50:56;3.28;;;2.00;;
52112;SDS011;38109;49.488;31.988;2022-09-29T16:53:31;2.30;;;1.73;;
52112;SDS011;38109;49.488;31.988;2022-09-29T16:55:58;2.65;;;1.90;;
52112;SDS011;38109;49.488;31.988;2022-09-29T16:58:28;2.75;;;1.80;;
52112;SDS011;38109;49.488;31.988;2022-09-29T17:00:56;3.97;;;1.90;;
52112;SDS011;38109;49.488;31.988;2022-09-29T17:03:21;2.97;;;1.80;;
52112;SDS011;38109;49.488;31.988;2022-09-29T17:05:47;3.20;;;1.98;;
52112;SDS011;38109;49.488;31.988;2022-09-29T17:10:40;4.78;;;2.65;;
52112;SDS011;38109;49.488;31.988;2022-09-29T17:13:10;4.85;;;2.42;;
52112;SDS011;38109;49.488;31.988;2022-09-29T17:15:39;4.25;;;2.67;;
52112;SDS011;38109;49.488;31.988;2022-09-29T17:18:09;3.50;;;2.35;;
52112;SDS011;38109;49.488;31.988;2022-09-29T17:20:37;3.25;;;2.28;;
52112;SDS011;38109;49.488;31.988;2022-09-29T17:23:03;2.75;;;2.00;;
52112;SDS011;38109;49.488;31.988;2022-09-29T17:25:29;4.20;;;2.55;;
52112;SDS011;38109;49.488;31.988;2022-09-29T17:27:56;3.28;;;2.33;;
52112;SDS011;38109;49.488;31.988;2022-09-29T17:30:38;3.53;;;2.53;;
52112;SDS011;38109;49.488;31.988;2022-09-29T17:33:04;4.47;;;3.03;;
52112;SDS011;38109;49.488;31.988;2022-09-29T17:35:41;4.82;;;3.05;;
52112;SDS011;38109;49.488;31.988;2022-09-29T17:38:09;5.60;;;3.33;;
52112;SDS011;38109;49.488;31.988;2022-09-29T17:40:54;5.22;;;3.00;;
52112;SDS011;38109;49.488;31.988;2022-09-29T17:43:25;4.65;;;3.13;;
52112;SDS011;38109;49.488;31.988;2022-09-29T17:45:50;4.57;;;2.67;;
52112;SDS011;38109;49.488;31.988;2022-09-29T17:48:19;3.85;;;2.60;;
52112;SDS011;38109;49.488;31.988;2022-09-29T17:50:47;4.65;;;3.10;;
52112;SDS011;38109;49.488;31.988;2022-09-29T17:53:14;3.75;;;2.72;;
52112;SDS011;38109;49.488;31.988;2022-09-29T17:55:42;5.00;;;3.40;;
52112;SDS011;38109;49.488;31.988;2022-09-29T17:58:10;4.28;;;2.55;;
52112;SDS011;38109;49.488;31.988;2022-09-29T18:00:37;4.72;;;2.70;;
52112;SDS011;38109;49.488;31.988;2022-09-29T18:03:07;3.58;;;2.50;;
52112;SDS011;38109;49.488;31.988;2022-09-29T18:05:36;4.05;;;2.65;;
52112;SDS011;38109;49.488;31.988;2022-09-29T18:08:03;5.65;;;2.90;;
52112;SDS011;38109;49.488;31.988;2022-09-29T18:10:41;4.03;;;2.38;;
52112;SDS011;38109;49.488;31.988;2022-09-29T18:13:10;3.67;;;2.35;;
52112;SDS011;38109;49.488;31.988;2022-09-29T18:15:36;4.30;;;2.53;;
52112;SDS011;38109;49.488;31.988;2022-09-29T18:18:03;5.15;;;2.78;;
52112;SDS011;38109;49.488;31.988;2022-09-29T18:20:30;5.30;;;2.35;;
52112;SDS011;38109;49.488;31.988;2022-09-29T18:22:57;2.22;;;1.60;;
52112;SDS011;38109;49.488;31.988;2022-09-29T18:25:25;3.75;;;2.00;;
52112;SDS011;38109;49.488;31.988;2022-09-29T18:27:52;2.47;;;1.52;;
52112;SDS011;38109;49.488;31.988;2022-09-29T18:30:19;4.18;;;2.55;;
52112;SDS011;38109;49.488;31.988;2022-09-29T18:32:48;3.97;;;2.47;;
52112;SDS011;38109;49.488;31.988;2022-09-29T18:35:17;4.70;;;2.47;;
52112;SDS011;38109;49.488;31.988;2022-09-29T18:37:44;2.30;;;1.85;;
52112;SDS011;38109;49.488;31.988;2022-09-29T18:40:10;3.42;;;1.92;;
52112;SDS011;38109;49.488;31.988;2022-09-29T18:42:42;2.92;;;1.70;;
52112;SDS011;38109;49.488;31.988;2022-09-29T18:45:14;2.83;;;1.45;;
52112;SDS011;38109;49.488;31.988;2022-09-29T18:47:50;2.78;;;1.92;;
52112;SDS011;38109;49.488;31.988;2022-09-29T18:50:21;3.85;;;2.40;;
52112;SDS011;38109;49.488;31.988;2022-09-29T18:52:49;2.15;;;1.80;;
52112;SDS011;38109;49.488;31.988;2022-09-29T18:55:16;4.57;;;2.30;;
52112;SDS011;38109;49.488;31.988;2022-09-29T18:57:44;3.58;;;2.00;;
52112;SDS011;38109;49.488;31.988;2022-09-29T19:00:12;5.43;;;2.20;;
52112;SDS011;38109;49.488;31.988;2022-09-29T19:02:40;2.80;;;1.73;;
52112;SDS011;38109;49.488;31.988;2022-09-29T19:05:08;4.20;;;2.60;;
52112;SDS011;38109;49.488;31.988;2022-09-29T19:07:35;3.53;;;2.20;;
52112;SDS011;38109;49.488;31.988;2022-09-29T19:10:00;3.35;;;2.30;;
52112;SDS011;38109;49.488;31.988;2022-09-29T19:12:26;3.35;;;1.83;;
52112;SDS011;38109;49.488;31.988;2022-09-29T19:14:54;3.22;;;2.22;;
52112;SDS011;38109;49.488;31.988;2022-09-29T19:17:24;3.85;;;2.10;;
52112;SDS011;38109;49.488;31.988;2022-09-29T19:19:50;3.97;;;2.10;;
52112;SDS011;38109;49.488;31.988;2022-09-29T19:22:16;5.57;;;3.17;;
52112;SDS011;38109;49.488;31.988;2022-09-29T19:24:42;2.65;;;1.80;;
52112;SDS011;38109;49.488;31.988;2022-09-29T19:27:09;3.97;;;2.50;;
52112;SDS011;38109;49.488;31.988;2022-09-29T19:29:34;4.90;;;2.80;;
52112;SDS011;38109;49.488;31.988;2022-09-29T19:32:00;3.95;;;2.60;;
52112;SDS011;38109;49.488;31.988;2022-09-29T19:34:26;2.80;;;2.03;;
52112;SDS011;38109;49.488;31.988;2022-09-29T19:36:54;4.07;;;2.80;;
52112;SDS011;38109;49.488;31.988;2022-09-29T19:39:20;4.68;;;2.60;;
52112;SDS011;38109;49.488;31.988;2022-09-29T19:41:47;5.15;;;2.67;;
52112;SDS011;38109;49.488;31.988;2022-09-29T19:44:12;4.30;;;2.75;;
52112;SDS011;38109;49.488;31.988;2022-09-29T19:46:38;5.97;;;3.38;;
52112;SDS011;38109;49.488;31.988;2022-09-29T19:49:04;7.80;;;4.38;;
52112;SDS011;38109;49.488;31.988;2022-09-29T19:51:29;5.68;;;3.58;;
52112;SDS011;38109;49.488;31.988;2022-09-29T19:54:14;6.50;;;3.08;;
52112;SDS011;38109;49.488;31.988;2022-09-29T19:56:56;4.82;;;3.08;;
52112;SDS011;38109;49.488;31.988;2022-09-29T19:59:28;12.65;;;3.67;;
52112;SDS011;38109;49.488;31.988;2022-09-29T20:01:56;8.88;;;3.85;;
52112;SDS011;38109;49.488;31.988;2022-09-29T20:04:24;9.73;;;4.45;;
52112;SDS011;38109;49.488;31.988;2022-09-29T20:06:51;10.57;;;4.63;;
52112;SDS011;38109;49.488;31.988;2022-09-29T20:09:17;9.00;;;3.40;;
52112;SDS011;38109;49.488;31.988;2022-09-29T20:11:45;6.15;;;2.88;;
52112;SDS011;38109;49.488;31.988;2022-09-29T20:14:13;5.13;;;3.15;;
52112;SDS011;38109;49.488;31.988;2022-09-29T20:16:42;3.80;;;2.33;;
52112;SDS011;38109;49.488;31.988;2022-09-29T20:19:10;3.60;;;2.60;;